sensor_id;sensor_type;location;lat;lon;timestamp;temperature;humidity
19622;DHT22;9958;33.196;-97.114;2022-12-16T00:00:07;9.30;74.80
19622;DHT22;9958;33.196;-97.114;2022-12-16T00:02:37;9.30;76.30
19622;DHT22;9958;33.196;-97.114;2022-12-16T00:05:07;9.20;77.10
19622;DHT22;9958;33.196;-97.114;2022-12-16T00:07:35;9.10;78.60
19622;DHT22;9958;33.196;-97.114;2022-12-16T00:10:05;9.00;79.10
19622;DHT22;9958;33.196;-97.114;2022-12-16T00:12:33;8.90;80.50
19622;DHT22;9958;33.196;-97.114;2022-12-16T00:15:02;8.80;82.40
19622;DHT22;9958;33.196;-97.114;2022-12-16T00:17:30;8.70;82.70
19622;DHT22;9958;33.196;-97.114;2022-12-16T00:19:58;8.60;82.50
19622;DHT22;9958;33.196;-97.114;2022-12-16T00:22:29;8.50;83.50
19622;DHT22;9958;33.196;-97.114;2022-12-16T00:24:58;8.40;84.30
19622;DHT22;9958;33.196;-97.114;2022-12-16T00:27:26;8.30;85.20
19622;DHT22;9958;33.196;-97.114;2022-12-16T00:29:54;8.20;86.00
19622;DHT22;9958;33.196;-97.114;2022-12-16T00:32:23;8.20;87.80
19622;DHT22;9958;33.196;-97.114;2022-12-16T00:34:51;8.10;87.40
19622;DHT22;9958;33.196;-97.114;2022-12-16T00:37:19;8.00;87.70
19622;DHT22;9958;33.196;-97.114;2022-12-16T00:39:49;7.90;87.60
19622;DHT22;9958;33.196;-97.114;2022-12-16T00:42:17;7.80;88.40
19622;DHT22;9958;33.196;-97.114;2022-12-16T00:44:46;7.80;87.90
19622;DHT22;9958;33.196;-97.114;2022-12-16T00:47:14;7.70;87.40
19622;DHT22;9958;33.196;-97.114;2022-12-16T00:49:42;7.60;88.20
19622;DHT22;9958;33.196;-97.114;2022-12-16T00:52:11;7.60;89.80
19622;DHT22;9958;33.196;-97.114;2022-12-16T00:54:39;7.50;90.00
19622;DHT22;9958;33.196;-97.114;2022-12-16T00:57:09;7.40;89.80
19622;DHT22;9958;33.196;-97.114;2022-12-16T00:59:37;7.30;89.40
19622;DHT22;9958;33.196;-97.114;2022-12-16T01:02:06;7.30;89.80
19622;DHT22;9958;33.196;-97.114;2022-12-16T01:04:36;7.30;89.80
19622;DHT22;9958;33.196;-97.114;2022-12-16T01:07:04;7.20;88.90
19622;DHT22;9958;33.196;-97.114;2022-12-16T01:09:32;7.20;89.10
19622;DHT22;9958;33.196;-97.114;2022-12-16T01:12:01;7.20;88.60
19622;DHT22;9958;33.196;-97.114;2022-12-16T01:14:31;7.20;88.50
19622;DHT22;9958;33.196;-97.114;2022-12-16T01:17:01;7.20;88.50
19622;DHT22;9958;33.196;-97.114;2022-12-16T01:19:30;7.20;87.80
19622;DHT22;9958;33.196;-97.114;2022-12-16T01:21:58;7.20;88.60
19622;DHT22;9958;33.196;-97.114;2022-12-16T01:24:26;7.20;90.30
19622;DHT22;9958;33.196;-97.114;2022-12-16T01:26:55;7.20;90.50
19622;DHT22;9958;33.196;-97.114;2022-12-16T01:29:23;7.20;90.10
19622;DHT22;9958;33.196;-97.114;2022-12-16T01:31:53;7.10;89.30
19622;DHT22;9958;33.196;-97.114;2022-12-16T01:34:21;7.10;89.10
19622;DHT22;9958;33.196;-97.114;2022-12-16T01:36:50;7.10;87.70
19622;DHT22;9958;33.196;-97.114;2022-12-16T01:39:19;7.10;87.90
19622;DHT22;9958;33.196;-97.114;2022-12-16T01:41:47;7.10;87.70
19622;DHT22;9958;33.196;-97.114;2022-12-16T01:44:17;7.10;88.60
19622;DHT22;9958;33.196;-97.114;2022-12-16T01:46:49;7.00;87.60
19622;DHT22;9958;33.196;-97.114;2022-12-16T01:49:23;7.00;86.70
19622;DHT22;9958;33.196;-97.114;2022-12-16T01:51:54;7.00;86.00
19622;DHT22;9958;33.196;-97.114;2022-12-16T01:54:28;7.00;87.50
19622;DHT22;9958;33.196;-97.114;2022-12-16T01:57:02;7.00;87.70
19622;DHT22;9958;33.196;-97.114;2022-12-16T01:59:34;7.00;88.40
19622;DHT22;9958;33.196;-97.114;2022-12-16T02:02:05;6.90;90.70
19622;DHT22;9958;33.196;-97.114;2022-12-16T02:04:35;6.90;90.60
19622;DHT22;9958;33.196;-97.114;2022-12-16T02:07:24;6.80;91.10
19622;DHT22;9958;33.196;-97.114;2022-12-16T02:09:52;6.70;91.40
19622;DHT22;9958;33.196;-97.114;2022-12-16T02:12:25;6.70;91.50
19622;DHT22;9958;33.196;-97.114;2022-12-16T02:15:11;6.70;92.50
19622;DHT22;9958;33.196;-97.114;2022-12-16T02:17:47;6.60;93.00
19622;DHT22;9958;33.196;-97.114;2022-12-16T02:20:55;6.50;93.00
19622;DHT22;9958;33.196;-97.114;2022-12-16T02:24:07;6.50;93.50
19622;DHT22;9958;33.196;-97.114;2022-12-16T02:27:08;6.40;93.20
19622;DHT22;9958;33.196;-97.114;2022-12-16T02:30:07;6.30;93.60
19622;DHT22;9958;33.196;-97.114;2022-12-16T02:32:53;6.30;93.50
19622;DHT22;9958;33.196;-97.114;2022-12-16T02:35:29;6.20;93.10
19622;DHT22;9958;33.196;-97.114;2022-12-16T02:38:10;6.20;93.50
19622;DHT22;9958;33.196;-97.114;2022-12-16T02:40:44;6.20;93.70
19622;DHT22;9958;33.196;-97.114;2022-12-16T02:43:18;6.10;94.40
19622;DHT22;9958;33.196;-97.114;2022-12-16T02:45:49;6.10;94.90
19622;DHT22;9958;33.196;-97.114;2022-12-16T02:48:20;6.10;94.30
19622;DHT22;9958;33.196;-97.114;2022-12-16T02:50:49;6.00;95.10
19622;DHT22;9958;33.196;-97.114;2022-12-16T02:53:19;6.00;95.10
19622;DHT22;9958;33.196;-97.114;2022-12-16T02:55:54;6.00;95.30
19622;DHT22;9958;33.196;-97.114;2022-12-16T02:58:29;6.00;95.50
19622;DHT22;9958;33.196;-97.114;2022-12-16T03:01:06;5.90;95.20
19622;DHT22;9958;33.196;-97.114;2022-12-16T03:03:42;5.90;95.10
19622;DHT22;9958;33.196;-97.114;2022-12-16T03:06:14;5.80;95.40
19622;DHT22;9958;33.196;-97.114;2022-12-16T03:08:48;5.80;95.80
19622;DHT22;9958;33.196;-97.114;2022-12-16T03:11:18;5.70;95.40
19622;DHT22;9958;33.196;-97.114;2022-12-16T03:13:50;5.70;95.20
19622;DHT22;9958;33.196;-97.114;2022-12-16T03:16:23;5.70;95.70
19622;DHT22;9958;33.196;-97.114;2022-12-16T03:18:57;5.60;95.40
19622;DHT22;9958;33.196;-97.114;2022-12-16T03:21:31;5.60;95.40
19622;DHT22;9958;33.196;-97.114;2022-12-16T03:24:03;5.50;96.30
19622;DHT22;9958;33.196;-97.114;2022-12-16T03:26:37;5.50;96.80
19622;DHT22;9958;33.196;-97.114;2022-12-16T03:29:08;5.40;97.20
19622;DHT22;9958;33.196;-97.114;2022-12-16T03:31:41;5.40;96.60
19622;DHT22;9958;33.196;-97.114;2022-12-16T03:34:16;5.30;95.80
19622;DHT22;9958;33.196;-97.114;2022-12-16T03:36:50;5.30;96.10
19622;DHT22;9958;33.196;-97.114;2022-12-16T03:39:21;5.30;96.40
19622;DHT22;9958;33.196;-97.114;2022-12-16T03:41:51;5.30;97.10
19622;DHT22;9958;33.196;-97.114;2022-12-16T03:44:21;5.30;97.70
19622;DHT22;9958;33.196;-97.114;2022-12-16T03:46:50;5.30;97.60
19622;DHT22;9958;33.196;-97.114;2022-12-16T03:49:20;5.20;97.60
19622;DHT22;9958;33.196;-97.114;2022-12-16T03:51:49;5.20;98.10
19622;DHT22;9958;33.196;-97.114;2022-12-16T03:54:17;5.20;98.60
19622;DHT22;9958;33.196;-97.114;2022-12-16T03:56:46;5.10;98.10
19622;DHT22;9958;33.196;-97.114;2022-12-16T03:59:14;5.10;98.60
19622;DHT22;9958;33.196;-97.114;2022-12-16T04:01:42;5.10;98.30
19622;DHT22;9958;33.196;-97.114;2022-12-16T04:04:11;5.10;98.10
19622;DHT22;9958;33.196;-97.114;2022-12-16T04:06:41;5.10;98.60
19622;DHT22;9958;33.196;-97.114;2022-12-16T04:09:09;5.10;98.70
19622;DHT22;9958;33.196;-97.114;2022-12-16T04:11:38;5.10;98.90
19622;DHT22;9958;33.196;-97.114;2022-12-16T04:14:23;5.00;98.60
19622;DHT22;9958;33.196;-97.114;2022-12-16T04:17:11;5.00;98.60
19622;DHT22;9958;33.196;-97.114;2022-12-16T04:19:56;5.00;98.00
19622;DHT22;9958;33.196;-97.114;2022-12-16T04:22:54;5.00;98.80
19622;DHT22;9958;33.196;-97.114;2022-12-16T04:25:40;5.00;99.30
19622;DHT22;9958;33.196;-97.114;2022-12-16T04:28:08;5.00;99.90
19622;DHT22;9958;33.196;-97.114;2022-12-16T04:30:36;4.90;99.90
19622;DHT22;9958;33.196;-97.114;2022-12-16T04:33:06;4.90;99.20
19622;DHT22;9958;33.196;-97.114;2022-12-16T04:35:53;4.90;99.30
19622;DHT22;9958;33.196;-97.114;2022-12-16T04:38:40;4.90;99.50
19622;DHT22;9958;33.196;-97.114;2022-12-16T04:41:25;4.90;99.70
19622;DHT22;9958;33.196;-97.114;2022-12-16T04:44:10;4.80;99.90
19622;DHT22;9958;33.196;-97.114;2022-12-16T04:46:56;4.80;99.90
19622;DHT22;9958;33.196;-97.114;2022-12-16T04:49:41;4.80;99.90
19622;DHT22;9958;33.196;-97.114;2022-12-16T04:52:26;4.70;99.90
19622;DHT22;9958;33.196;-97.114;2022-12-16T04:55:13;4.70;99.90
19622;DHT22;9958;33.196;-97.114;2022-12-16T04:58:01;4.60;99.90
19622;DHT22;9958;33.196;-97.114;2022-12-16T05:00:47;4.60;99.90
19622;DHT22;9958;33.196;-97.114;2022-12-16T05:03:33;4.60;99.90
19622;DHT22;9958;33.196;-97.114;2022-12-16T05:06:19;4.50;99.90
19622;DHT22;9958;33.196;-97.114;2022-12-16T05:09:05;4.50;99.90
19622;DHT22;9958;33.196;-97.114;2022-12-16T05:11:52;4.50;99.90
19622;DHT22;9958;33.196;-97.114;2022-12-16T05:14:37;4.50;99.90
19622;DHT22;9958;33.196;-97.114;2022-12-16T05:17:22;4.50;99.90
19622;DHT22;9958;33.196;-97.114;2022-12-16T05:20:08;4.40;99.90
19622;DHT22;9958;33.196;-97.114;2022-12-16T05:22:55;4.40;99.90
19622;DHT22;9958;33.196;-97.114;2022-12-16T05:25:41;4.40;99.90
19622;DHT22;9958;33.196;-97.114;2022-12-16T05:28:28;4.30;99.90
19622;DHT22;9958;33.196;-97.114;2022-12-16T05:31:13;4.30;99.90
19622;DHT22;9958;33.196;-97.114;2022-12-16T05:34:04;4.30;99.90
19622;DHT22;9958;33.196;-97.114;2022-12-16T05:36:49;4.20;99.90
19622;DHT22;9958;33.196;-97.114;2022-12-16T05:39:49;4.20;99.90
19622;DHT22;9958;33.196;-97.114;2022-12-16T05:42:45;4.10;99.90
19622;DHT22;9958;33.196;-97.114;2022-12-16T05:45:33;4.10;99.90
19622;DHT22;9958;33.196;-97.114;2022-12-16T05:48:18;4.00;99.90
19622;DHT22;9958;33.196;-97.114;2022-12-16T05:51:03;4.10;99.90
19622;DHT22;9958;33.196;-97.114;2022-12-16T05:53:49;4.00;99.90
19622;DHT22;9958;33.196;-97.114;2022-12-16T05:56:34;4.00;99.90
19622;DHT22;9958;33.196;-97.114;2022-12-16T05:59:19;4.00;99.90
19622;DHT22;9958;33.196;-97.114;2022-12-16T06:02:02;4.00;99.90
19622;DHT22;9958;33.196;-97.114;2022-12-16T06:04:47;3.90;99.90
19622;DHT22;9958;33.196;-97.114;2022-12-16T06:07:32;3.90;99.90
19622;DHT22;9958;33.196;-97.114;2022-12-16T06:10:17;3.90;99.90
19622;DHT22;9958;33.196;-97.114;2022-12-16T06:13:03;3.90;99.90
19622;DHT22;9958;33.196;-97.114;2022-12-16T06:15:48;3.80;99.90
19622;DHT22;9958;33.196;-97.114;2022-12-16T06:18:34;3.80;99.90
19622;DHT22;9958;33.196;-97.114;2022-12-16T06:21:28;3.80;99.90
19622;DHT22;9958;33.196;-97.114;2022-12-16T06:24:15;3.70;99.90
19622;DHT22;9958;33.196;-97.114;2022-12-16T06:27:00;3.70;99.90
19622;DHT22;9958;33.196;-97.114;2022-12-16T06:29:45;3.70;99.90
19622;DHT22;9958;33.196;-97.114;2022-12-16T06:32:30;3.60;99.90
19622;DHT22;9958;33.196;-97.114;2022-12-16T06:35:14;3.60;99.90
19622;DHT22;9958;33.196;-97.114;2022-12-16T06:38:04;3.60;99.90
19622;DHT22;9958;33.196;-97.114;2022-12-16T06:40:50;3.60;99.90
19622;DHT22;9958;33.196;-97.114;2022-12-16T06:43:35;3.50;99.90
19622;DHT22;9958;33.196;-97.114;2022-12-16T06:46:34;3.50;99.90
19622;DHT22;9958;33.196;-97.114;2022-12-16T06:49:19;3.50;99.90
19622;DHT22;9958;33.196;-97.114;2022-12-16T06:52:06;3.40;99.90
19622;DHT22;9958;33.196;-97.114;2022-12-16T06:54:51;3.40;99.90
19622;DHT22;9958;33.196;-97.114;2022-12-16T06:57:37;3.40;99.90
19622;DHT22;9958;33.196;-97.114;2022-12-16T07:00:22;3.40;99.90
19622;DHT22;9958;33.196;-97.114;2022-12-16T07:03:07;3.30;99.90
19622;DHT22;9958;33.196;-97.114;2022-12-16T07:05:52;3.30;99.90
19622;DHT22;9958;33.196;-97.114;2022-12-16T07:08:39;3.20;99.90
19622;DHT22;9958;33.196;-97.114;2022-12-16T07:11:24;3.20;99.90
19622;DHT22;9958;33.196;-97.114;2022-12-16T07:14:09;3.20;99.90
19622;DHT22;9958;33.196;-97.114;2022-12-16T07:16:55;3.10;99.90
19622;DHT22;9958;33.196;-97.114;2022-12-16T07:19:39;3.10;99.90
19622;DHT22;9958;33.196;-97.114;2022-12-16T07:22:25;3.10;99.90
19622;DHT22;9958;33.196;-97.114;2022-12-16T07:25:12;3.00;99.90
19622;DHT22;9958;33.196;-97.114;2022-12-16T07:27:56;3.00;99.90
19622;DHT22;9958;33.196;-97.114;2022-12-16T07:30:42;3.00;99.90
19622;DHT22;9958;33.196;-97.114;2022-12-16T07:33:27;3.00;99.90
19622;DHT22;9958;33.196;-97.114;2022-12-16T07:36:12;3.00;99.90
19622;DHT22;9958;33.196;-97.114;2022-12-16T07:38:58;3.00;99.90
19622;DHT22;9958;33.196;-97.114;2022-12-16T07:41:44;3.00;99.90
19622;DHT22;9958;33.196;-97.114;2022-12-16T07:44:30;3.00;99.90
19622;DHT22;9958;33.196;-97.114;2022-12-16T07:47:15;2.90;99.90
19622;DHT22;9958;33.196;-97.114;2022-12-16T07:50:00;2.90;99.90
19622;DHT22;9958;33.196;-97.114;2022-12-16T07:52:45;2.90;99.90
19622;DHT22;9958;33.196;-97.114;2022-12-16T07:55:30;2.90;99.90
19622;DHT22;9958;33.196;-97.114;2022-12-16T07:58:17;2.90;99.90
19622;DHT22;9958;33.196;-97.114;2022-12-16T08:01:02;2.90;99.90
19622;DHT22;9958;33.196;-97.114;2022-12-16T08:03:47;2.80;99.90
19622;DHT22;9958;33.196;-97.114;2022-12-16T08:06:32;2.80;99.90
19622;DHT22;9958;33.196;-97.114;2022-12-16T08:09:17;2.80;99.90
19622;DHT22;9958;33.196;-97.114;2022-12-16T08:12:02;2.80;99.90
19622;DHT22;9958;33.196;-97.114;2022-12-16T08:14:48;2.80;99.90
19622;DHT22;9958;33.196;-97.114;2022-12-16T08:17:34;2.80;99.90
19622;DHT22;9958;33.196;-97.114;2022-12-16T08:20:19;2.80;99.90
19622;DHT22;9958;33.196;-97.114;2022-12-16T08:23:19;2.80;99.90
19622;DHT22;9958;33.196;-97.114;2022-12-16T08:26:12;2.80;99.90
19622;DHT22;9958;33.196;-97.114;2022-12-16T08:28:58;2.70;99.90
19622;DHT22;9958;33.196;-97.114;2022-12-16T08:31:45;2.70;99.90
19622;DHT22;9958;33.196;-97.114;2022-12-16T08:34:30;2.70;99.90
19622;DHT22;9958;33.196;-97.114;2022-12-16T08:37:15;2.70;99.90
19622;DHT22;9958;33.196;-97.114;2022-12-16T08:40:12;2.70;99.90
19622;DHT22;9958;33.196;-97.114;2022-12-16T08:42:57;2.70;99.90
19622;DHT22;9958;33.196;-97.114;2022-12-16T08:45:42;2.70;99.90
19622;DHT22;9958;33.196;-97.114;2022-12-16T08:48:29;2.70;99.90
19622;DHT22;9958;33.196;-97.114;2022-12-16T08:51:15;2.70;99.90
19622;DHT22;9958;33.196;-97.114;2022-12-16T08:54:00;2.70;99.90
19622;DHT22;9958;33.196;-97.114;2022-12-16T08:56:45;2.70;99.90
19622;DHT22;9958;33.196;-97.114;2022-12-16T08:59:30;2.70;99.90
19622;DHT22;9958;33.196;-97.114;2022-12-16T09:02:15;2.70;99.90
19622;DHT22;9958;33.196;-97.114;2022-12-16T09:05:02;2.70;99.90
19622;DHT22;9958;33.196;-97.114;2022-12-16T09:07:47;2.70;99.90
19622;DHT22;9958;33.196;-97.114;2022-12-16T09:10:32;2.70;99.90
19622;DHT22;9958;33.196;-97.114;2022-12-16T09:13:17;2.70;99.90
19622;DHT22;9958;33.196;-97.114;2022-12-16T09:16:02;2.70;99.90
19622;DHT22;9958;33.196;-97.114;2022-12-16T09:18:48;2.70;99.90
19622;DHT22;9958;33.196;-97.114;2022-12-16T09:21:34;2.70;99.90
19622;DHT22;9958;33.196;-97.114;2022-12-16T09:24:19;2.60;99.90
19622;DHT22;9958;33.196;-97.114;2022-12-16T09:27:04;2.60;99.90
19622;DHT22;9958;33.196;-97.114;2022-12-16T09:29:49;2.60;99.90
19622;DHT22;9958;33.196;-97.114;2022-12-16T09:32:35;2.60;99.90
19622;DHT22;9958;33.196;-97.114;2022-12-16T09:35:33;2.60;99.90
19622;DHT22;9958;33.196;-97.114;2022-12-16T09:38:20;2.50;99.90
19622;DHT22;9958;33.196;-97.114;2022-12-16T09:41:27;2.50;99.90
19622;DHT22;9958;33.196;-97.114;2022-12-16T09:44:19;2.50;99.90
19622;DHT22;9958;33.196;-97.114;2022-12-16T09:47:18;2.50;99.90
19622;DHT22;9958;33.196;-97.114;2022-12-16T09:50:16;2.50;99.90
19622;DHT22;9958;33.196;-97.114;2022-12-16T09:53:03;2.50;99.90
19622;DHT22;9958;33.196;-97.114;2022-12-16T09:55:51;2.50;99.90
19622;DHT22;9958;33.196;-97.114;2022-12-16T09:58:41;2.60;99.90
19622;DHT22;9958;33.196;-97.114;2022-12-16T10:01:31;2.60;99.90
19622;DHT22;9958;33.196;-97.114;2022-12-16T10:04:17;2.50;99.90
19622;DHT22;9958;33.196;-97.114;2022-12-16T10:07:02;2.50;99.90
19622;DHT22;9958;33.196;-97.114;2022-12-16T10:09:57;2.50;99.90
19622;DHT22;9958;33.196;-97.114;2022-12-16T10:12:50;2.50;99.90
19622;DHT22;9958;33.196;-97.114;2022-12-16T10:15:44;2.60;99.90
19622;DHT22;9958;33.196;-97.114;2022-12-16T10:18:41;2.50;99.90
19622;DHT22;9958;33.196;-97.114;2022-12-16T10:21:33;2.60;99.90
19622;DHT22;9958;33.196;-97.114;2022-12-16T10:24:29;2.60;99.90
19622;DHT22;9958;33.196;-97.114;2022-12-16T10:27:20;2.60;99.90
19622;DHT22;9958;33.196;-97.114;2022-12-16T10:30:11;2.60;99.90
19622;DHT22;9958;33.196;-97.114;2022-12-16T10:32:57;2.70;99.90
19622;DHT22;9958;33.196;-97.114;2022-12-16T10:35:46;2.70;99.90
19622;DHT22;9958;33.196;-97.114;2022-12-16T10:38:35;2.70;99.90
19622;DHT22;9958;33.196;-97.114;2022-12-16T10:41:24;2.70;99.90
19622;DHT22;9958;33.196;-97.114;2022-12-16T10:44:18;2.70;99.90
19622;DHT22;9958;33.196;-97.114;2022-12-16T10:47:06;2.70;99.90
19622;DHT22;9958;33.196;-97.114;2022-12-16T10:49:53;2.70;99.90
19622;DHT22;9958;33.196;-97.114;2022-12-16T10:52:44;2.70;99.90
19622;DHT22;9958;33.196;-97.114;2022-12-16T10:55:43;2.70;99.90
19622;DHT22;9958;33.196;-97.114;2022-12-16T10:58:38;2.70;99.90
19622;DHT22;9958;33.196;-97.114;2022-12-16T11:01:27;2.70;99.90
19622;DHT22;9958;33.196;-97.114;2022-12-16T11:04:30;2.70;99.90
19622;DHT22;9958;33.196;-97.114;2022-12-16T11:07:24;2.70;99.90
19622;DHT22;9958;33.196;-97.114;2022-12-16T11:10:28;2.70;99.90
19622;DHT22;9958;33.196;-97.114;2022-12-16T11:13:20;2.70;99.90
19622;DHT22;9958;33.196;-97.114;2022-12-16T11:16:15;2.70;99.90
19622;DHT22;9958;33.196;-97.114;2022-12-16T11:19:00;2.70;99.90
19622;DHT22;9958;33.196;-97.114;2022-12-16T11:21:47;2.70;99.90
19622;DHT22;9958;33.196;-97.114;2022-12-16T11:24:33;2.70;99.90
19622;DHT22;9958;33.196;-97.114;2022-12-16T11:27:23;2.70;99.90
19622;DHT22;9958;33.196;-97.114;2022-12-16T11:30:17;2.70;99.90
19622;DHT22;9958;33.196;-97.114;2022-12-16T11:33:09;2.70;99.90
19622;DHT22;9958;33.196;-97.114;2022-12-16T11:36:09;2.80;99.90
19622;DHT22;9958;33.196;-97.114;2022-12-16T11:38:56;2.80;99.90
19622;DHT22;9958;33.196;-97.114;2022-12-16T11:41:44;2.80;99.90
19622;DHT22;9958;33.196;-97.114;2022-12-16T11:44:34;2.90;99.90
19622;DHT22;9958;33.196;-97.114;2022-12-16T11:47:33;2.90;99.90
19622;DHT22;9958;33.196;-97.114;2022-12-16T11:50:20;3.00;99.90
19622;DHT22;9958;33.196;-97.114;2022-12-16T11:53:22;3.00;99.90
19622;DHT22;9958;33.196;-97.114;2022-12-16T11:56:13;3.00;99.90
19622;DHT22;9958;33.196;-97.114;2022-12-16T11:59:02;3.10;99.90
19622;DHT22;9958;33.196;-97.114;2022-12-16T12:01:52;3.10;99.90
19622;DHT22;9958;33.196;-97.114;2022-12-16T12:04:39;3.10;99.90
19622;DHT22;9958;33.196;-97.114;2022-12-16T12:07:28;3.10;99.90
19622;DHT22;9958;33.196;-97.114;2022-12-16T12:10:29;3.10;99.90
19622;DHT22;9958;33.196;-97.114;2022-12-16T12:13:34;3.10;99.90
19622;DHT22;9958;33.196;-97.114;2022-12-16T12:16:29;3.10;99.90
19622;DHT22;9958;33.196;-97.114;2022-12-16T12:19:21;3.00;99.90
19622;DHT22;9958;33.196;-97.114;2022-12-16T12:22:11;3.00;99.90
19622;DHT22;9958;33.196;-97.114;2022-12-16T12:25:06;3.00;99.90
19622;DHT22;9958;33.196;-97.114;2022-12-16T12:27:57;3.00;99.90
19622;DHT22;9958;33.196;-97.114;2022-12-16T12:30:51;2.90;99.90
19622;DHT22;9958;33.196;-97.114;2022-12-16T12:33:48;2.80;99.90
19622;DHT22;9958;33.196;-97.114;2022-12-16T12:36:40;2.80;99.90
19622;DHT22;9958;33.196;-97.114;2022-12-16T12:39:33;2.80;99.90
19622;DHT22;9958;33.196;-97.114;2022-12-16T12:42:27;2.80;99.90
19622;DHT22;9958;33.196;-97.114;2022-12-16T12:48:43;2.70;99.90
19622;DHT22;9958;33.196;-97.114;2022-12-16T12:51:36;2.60;99.90
19622;DHT22;9958;33.196;-97.114;2022-12-16T12:54:29;2.60;99.90
19622;DHT22;9958;33.196;-97.114;2022-12-16T12:57:19;2.60;99.90
19622;DHT22;9958;33.196;-97.114;2022-12-16T13:00:17;2.60;99.90
19622;DHT22;9958;33.196;-97.114;2022-12-16T13:03:06;2.60;99.90
19622;DHT22;9958;33.196;-97.114;2022-12-16T13:05:57;2.50;99.90
19622;DHT22;9958;33.196;-97.114;2022-12-16T13:08:55;2.50;99.90
19622;DHT22;9958;33.196;-97.114;2022-12-16T13:15:03;2.50;99.90
19622;DHT22;9958;33.196;-97.114;2022-12-16T13:18:20;2.40;99.90
19622;DHT22;9958;33.196;-97.114;2022-12-16T13:21:41;2.40;99.90
19622;DHT22;9958;33.196;-97.114;2022-12-16T13:24:46;2.40;99.90
19622;DHT22;9958;33.196;-97.114;2022-12-16T13:27:49;2.40;99.90
19622;DHT22;9958;33.196;-97.114;2022-12-16T13:30:35;2.30;99.90
19622;DHT22;9958;33.196;-97.114;2022-12-16T13:33:23;2.30;99.90
19622;DHT22;9958;33.196;-97.114;2022-12-16T13:36:11;2.30;99.90
19622;DHT22;9958;33.196;-97.114;2022-12-16T13:39:06;2.30;99.90
19622;DHT22;9958;33.196;-97.114;2022-12-16T13:42:02;2.30;99.90
19622;DHT22;9958;33.196;-97.114;2022-12-16T13:44:57;2.30;99.90
19622;DHT22;9958;33.196;-97.114;2022-12-16T13:48:03;2.30;99.90
19622;DHT22;9958;33.196;-97.114;2022-12-16T13:50:50;2.30;99.90
19622;DHT22;9958;33.196;-97.114;2022-12-16T13:53:44;2.30;99.90
19622;DHT22;9958;33.196;-97.114;2022-12-16T13:56:34;2.30;99.90
19622;DHT22;9958;33.196;-97.114;2022-12-16T13:59:22;2.20;99.90
19622;DHT22;9958;33.196;-97.114;2022-12-16T14:02:19;2.30;99.90
19622;DHT22;9958;33.196;-97.114;2022-12-16T14:05:16;2.30;99.90
19622;DHT22;9958;33.196;-97.114;2022-12-16T14:07:58;2.30;99.90
19622;DHT22;9958;33.196;-97.114;2022-12-16T14:10:45;2.40;99.90
19622;DHT22;9958;33.196;-97.114;2022-12-16T14:13:40;2.40;99.90
19622;DHT22;9958;33.196;-97.114;2022-12-16T14:16:36;2.50;99.90
19622;DHT22;9958;33.196;-97.114;2022-12-16T14:19:28;2.60;99.90
19622;DHT22;9958;33.196;-97.114;2022-12-16T14:22:26;2.60;99.90
19622;DHT22;9958;33.196;-97.114;2022-12-16T14:25:17;2.70;99.90
19622;DHT22;9958;33.196;-97.114;2022-12-16T14:28:16;2.80;99.90
19622;DHT22;9958;33.196;-97.114;2022-12-16T14:31:04;2.80;99.90
19622;DHT22;9958;33.196;-97.114;2022-12-16T14:33:52;2.90;99.90
19622;DHT22;9958;33.196;-97.114;2022-12-16T14:36:39;3.00;99.90
19622;DHT22;9958;33.196;-97.114;2022-12-16T14:39:28;3.10;99.90
19622;DHT22;9958;33.196;-97.114;2022-12-16T14:42:17;3.20;99.90
19622;DHT22;9958;33.196;-97.114;2022-12-16T14:45:21;3.30;99.90
19622;DHT22;9958;33.196;-97.114;2022-12-16T14:48:14;3.30;99.70
19622;DHT22;9958;33.196;-97.114;2022-12-16T14:50:56;3.40;98.70
19622;DHT22;9958;33.196;-97.114;2022-12-16T14:53:41;3.50;98.20
19622;DHT22;9958;33.196;-97.114;2022-12-16T14:56:29;3.50;97.20
19622;DHT22;9958;33.196;-97.114;2022-12-16T14:59:16;3.60;97.40
19622;DHT22;9958;33.196;-97.114;2022-12-16T15:02:13;3.70;97.00
19622;DHT22;9958;33.196;-97.114;2022-12-16T15:05:04;3.70;96.10
19622;DHT22;9958;33.196;-97.114;2022-12-16T15:07:49;3.80;95.70
19622;DHT22;9958;33.196;-97.114;2022-12-16T15:10:35;3.80;95.90
19622;DHT22;9958;33.196;-97.114;2022-12-16T15:13:21;3.90;96.10
19622;DHT22;9958;33.196;-97.114;2022-12-16T15:16:13;4.00;95.40
19622;DHT22;9958;33.196;-97.114;2022-12-16T15:19:13;4.00;95.70
19622;DHT22;9958;33.196;-97.114;2022-12-16T15:22:02;4.10;95.80
19622;DHT22;9958;33.196;-97.114;2022-12-16T15:24:47;4.30;95.30
19622;DHT22;9958;33.196;-97.114;2022-12-16T15:27:35;4.30;95.20
19622;DHT22;9958;33.196;-97.114;2022-12-16T15:30:35;4.40;94.70
19622;DHT22;9958;33.196;-97.114;2022-12-16T15:33:23;4.50;95.10
19622;DHT22;9958;33.196;-97.114;2022-12-16T15:36:28;4.60;94.80
19622;DHT22;9958;33.196;-97.114;2022-12-16T15:39:20;4.70;93.70
19622;DHT22;9958;33.196;-97.114;2022-12-16T15:42:18;4.70;93.10
19622;DHT22;9958;33.196;-97.114;2022-12-16T15:45:04;4.80;93.00
19622;DHT22;9958;33.196;-97.114;2022-12-16T15:47:51;4.80;92.30
19622;DHT22;9958;33.196;-97.114;2022-12-16T15:50:37;4.90;91.70
19622;DHT22;9958;33.196;-97.114;2022-12-16T15:53:28;4.90;91.50
19622;DHT22;9958;33.196;-97.114;2022-12-16T15:56:19;5.00;90.70
19622;DHT22;9958;33.196;-97.114;2022-12-16T15:59:25;5.10;90.90
19622;DHT22;9958;33.196;-97.114;2022-12-16T16:02:15;5.20;90.20
19622;DHT22;9958;33.196;-97.114;2022-12-16T16:05:10;5.30;90.50
19622;DHT22;9958;33.196;-97.114;2022-12-16T16:07:56;5.30;87.20
19622;DHT22;9958;33.196;-97.114;2022-12-16T16:10:43;5.40;88.90
19622;DHT22;9958;33.196;-97.114;2022-12-16T16:13:28;5.40;86.40
19622;DHT22;9958;33.196;-97.114;2022-12-16T16:16:25;5.40;86.50
19622;DHT22;9958;33.196;-97.114;2022-12-16T16:19:13;5.50;86.40
19622;DHT22;9958;33.196;-97.114;2022-12-16T16:22:00;5.60;87.20
19622;DHT22;9958;33.196;-97.114;2022-12-16T16:24:45;5.60;85.70
19622;DHT22;9958;33.196;-97.114;2022-12-16T16:27:31;5.60;86.40
19622;DHT22;9958;33.196;-97.114;2022-12-16T16:30:17;5.70;87.40
19622;DHT22;9958;33.196;-97.114;2022-12-16T16:33:04;5.80;86.10
19622;DHT22;9958;33.196;-97.114;2022-12-16T16:35:50;5.80;78.30
19622;DHT22;9958;33.196;-97.114;2022-12-16T16:38:35;5.80;79.30
19622;DHT22;9958;33.196;-97.114;2022-12-16T16:41:20;6.00;80.80
19622;DHT22;9958;33.196;-97.114;2022-12-16T16:44:09;6.10;80.50
19622;DHT22;9958;33.196;-97.114;2022-12-16T16:46:56;6.20;80.90
19622;DHT22;9958;33.196;-97.114;2022-12-16T16:49:56;6.40;78.60
19622;DHT22;9958;33.196;-97.114;2022-12-16T16:52:41;6.40;76.80
19622;DHT22;9958;33.196;-97.114;2022-12-16T16:55:26;6.50;77.00
19622;DHT22;9958;33.196;-97.114;2022-12-16T16:58:13;6.50;77.60
19622;DHT22;9958;33.196;-97.114;2022-12-16T17:01:01;6.60;77.90
19622;DHT22;9958;33.196;-97.114;2022-12-16T17:03:45;6.60;77.50
19622;DHT22;9958;33.196;-97.114;2022-12-16T17:06:31;6.60;76.00
19622;DHT22;9958;33.196;-97.114;2022-12-16T17:09:17;6.50;75.80
19622;DHT22;9958;33.196;-97.114;2022-12-16T17:12:13;6.50;76.90
19622;DHT22;9958;33.196;-97.114;2022-12-16T17:15:04;6.50;75.90
19622;DHT22;9958;33.196;-97.114;2022-12-16T17:17:55;6.50;74.00
19622;DHT22;9958;33.196;-97.114;2022-12-16T17:20:40;6.50;73.20
19622;DHT22;9958;33.196;-97.114;2022-12-16T17:23:25;6.50;70.20
19622;DHT22;9958;33.196;-97.114;2022-12-16T17:26:11;6.70;71.80